sensor_id;sensor_type;location;lat;lon;timestamp;pressure;altitude;pressure_sealevel;temperature;humidity
69318;BME280;56457;52.190;4.440;2023-09-19T00:00:40;100742.59;;;17.36;100.00
69318;BME280;56457;52.190;4.440;2023-09-19T00:01:42;100745.25;;;17.36;100.00
69318;BME280;56457;52.190;4.440;2023-09-19T00:02:45;100751.53;;;17.34;100.00
69318;BME280;56457;52.190;4.440;2023-09-19T00:03:47;100754.19;;;17.34;100.00
69318;BME280;56457;52.190;4.440;2023-09-19T00:04:47;100755.84;;;17.36;100.00
69318;BME280;56457;52.190;4.440;2023-09-19T00:05:48;100749.69;;;17.36;100.00
69318;BME280;56457;52.190;4.440;2023-09-19T00:06:50;100753.13;;;17.38;100.00
69318;BME280;56457;52.190;4.440;2023-09-19T00:07:51;100753.56;;;17.27;100.00
69318;BME280;56457;52.190;4.440;2023-09-19T00:08:54;100757.00;;;17.29;100.00
69318;BME280;56457;52.190;4.440;2023-09-19T00:09:55;100757.72;;;17.34;100.00
69318;BME280;56457;52.190;4.440;2023-09-19T00:10:55;100772.13;;;17.27;100.00
69318;BME280;56457;52.190;4.440;2023-09-19T00:11:56;100763.25;;;17.28;100.00
69318;BME280;56457;52.190;4.440;2023-09-19T00:12:57;100755.22;;;17.30;100.00
69318;BME280;56457;52.190;4.440;2023-09-19T00:13:58;100762.16;;;17.34;100.00
69318;BME280;56457;52.190;4.440;2023-09-19T00:14:59;100762.03;;;17.37;100.00
69318;BME280;56457;52.190;4.440;2023-09-19T00:16:00;100753.13;;;17.38;100.00
69318;BME280;56457;52.190;4.440;2023-09-19T00:17:01;100760.53;;;17.30;100.00
69318;BME280;56457;52.190;4.440;2023-09-19T00:18:08;100755.06;;;17.34;100.00
69318;BME280;56457;52.190;4.440;2023-09-19T00:19:09;100759.44;;;17.35;100.00
69318;BME280;56457;52.190;4.440;2023-09-19T00:20:09;100763.00;;;17.34;100.00
69318;BME280;56457;52.190;4.440;2023-09-19T00:21:12;100761.28;;;17.33;100.00
69318;BME280;56457;52.190;4.440;2023-09-19T00:22:13;100763.72;;;17.39;100.00
69318;BME280;56457;52.190;4.440;2023-09-19T00:23:15;100762.88;;;17.37;100.00
69318;BME280;56457;52.190;4.440;2023-09-19T00:24:16;100769.19;;;17.35;100.00
69318;BME280;56457;52.190;4.440;2023-09-19T00:25:19;100764.81;;;17.34;100.00
69318;BME280;56457;52.190;4.440;2023-09-19T00:26:20;100762.25;;;17.31;100.00
69318;BME280;56457;52.190;4.440;2023-09-19T00:27:21;100772.56;;;17.38;100.00
69318;BME280;56457;52.190;4.440;2023-09-19T00:28:22;100776.31;;;17.33;100.00
69318;BME280;56457;52.190;4.440;2023-09-19T00:29:22;100766.59;;;17.33;100.00
69318;BME280;56457;52.190;4.440;2023-09-19T00:30:23;100760.06;;;17.42;100.00
69318;BME280;56457;52.190;4.440;2023-09-19T00:31:24;100774.13;;;17.44;100.00
69318;BME280;56457;52.190;4.440;2023-09-19T00:32:25;100772.56;;;17.38;100.00
69318;BME280;56457;52.190;4.440;2023-09-19T00:33:31;100779.78;;;17.35;100.00
69318;BME280;56457;52.190;4.440;2023-09-19T00:34:31;100775.13;;;17.41;100.00
69318;BME280;56457;52.190;4.440;2023-09-19T00:35:34;100771.59;;;17.41;100.00
69318;BME280;56457;52.190;4.440;2023-09-19T00:36:34;100781.50;;;17.36;100.00
69318;BME280;56457;52.190;4.440;2023-09-19T00:37:35;100769.75;;;17.43;100.00
69318;BME280;56457;52.190;4.440;2023-09-19T00:38:39;100767.78;;;17.48;100.00
69318;BME280;56457;52.190;4.440;2023-09-19T00:39:40;100766.16;;;17.44;100.00
69318;BME280;56457;52.190;4.440;2023-09-19T00:40:43;100767.22;;;17.40;100.00
69318;BME280;56457;52.190;4.440;2023-09-19T00:41:44;100762.81;;;17.39;100.00
69318;BME280;56457;52.190;4.440;2023-09-19T00:42:45;100770.91;;;17.36;100.00
69318;BME280;56457;52.190;4.440;2023-09-19T00:43:46;100761.09;;;17.38;100.00
69318;BME280;56457;52.190;4.440;2023-09-19T00:44:47;100766.13;;;17.45;100.00
69318;BME280;56457;52.190;4.440;2023-09-19T00:45:52;100770.53;;;17.45;100.00
69318;BME280;56457;52.190;4.440;2023-09-19T00:46:53;100762.44;;;17.49;100.00
69318;BME280;56457;52.190;4.440;2023-09-19T00:47:53;100767.78;;;17.48;100.00
69318;BME280;56457;52.190;4.440;2023-09-19T00:48:54;100756.91;;;17.56;100.00
69318;BME280;56457;52.190;4.440;2023-09-19T00:49:54;100755.31;;;17.52;100.00
69318;BME280;56457;52.190;4.440;2023-09-19T00:50:55;100751.66;;;17.54;100.00
69318;BME280;56457;52.190;4.440;2023-09-19T00:51:57;100770.22;;;17.54;100.00
69318;BME280;56457;52.190;4.440;2023-09-19T00:52:58;100766.72;;;17.54;100.00
69318;BME280;56457;52.190;4.440;2023-09-19T00:53:58;100765.00;;;17.51;100.00
69318;BME280;56457;52.190;4.440;2023-09-19T00:54:59;100763.06;;;17.56;100.00
69318;BME280;56457;52.190;4.440;2023-09-19T00:56:00;100775.53;;;17.54;100.00
69318;BME280;56457;52.190;4.440;2023-09-19T00:57:01;100770.00;;;17.60;100.00
69318;BME280;56457;52.190;4.440;2023-09-19T00:58:01;100764.63;;;17.62;100.00
69318;BME280;56457;52.190;4.440;2023-09-19T00:59:02;100769.84;;;17.63;100.00
69318;BME280;56457;52.190;4.440;2023-09-19T01:00:02;100774.44;;;17.60;100.00
69318;BME280;56457;52.190;4.440;2023-09-19T01:01:07;100775.53;;;17.54;100.00
69318;BME280;56457;52.190;4.440;2023-09-19T01:02:07;100783.19;;;17.62;100.00
69318;BME280;56457;52.190;4.440;2023-09-19T01:03:08;100776.09;;;17.62;100.00
69318;BME280;56457;52.190;4.440;2023-09-19T01:04:09;100782.22;;;17.64;100.00
69318;BME280;56457;52.190;4.440;2023-09-19T01:05:10;100775.00;;;17.68;100.00
69318;BME280;56457;52.190;4.440;2023-09-19T01:06:12;100785.78;;;17.63;100.00
69318;BME280;56457;52.190;4.440;2023-09-19T01:07:12;100778.94;;;17.58;100.00
69318;BME280;56457;52.190;4.440;2023-09-19T01:08:15;100784.28;;;17.56;100.00
69318;BME280;56457;52.190;4.440;2023-09-19T01:09:15;100786.91;;;17.58;100.00
69318;BME280;56457;52.190;4.440;2023-09-19T01:10:17;100777.88;;;17.62;100.00
69318;BME280;56457;52.190;4.440;2023-09-19T01:11:21;100795.44;;;17.66;100.00
69318;BME280;56457;52.190;4.440;2023-09-19T01:12:24;100781.53;;;17.59;100.00
69318;BME280;56457;52.190;4.440;2023-09-19T01:14:54;100780.84;;;17.54;100.00
69318;BME280;56457;52.190;4.440;2023-09-19T01:17:07;100784.47;;;17.52;100.00
69318;BME280;56457;52.190;4.440;2023-09-19T01:25:33;100781.06;;;17.48;100.00
69318;BME280;56457;52.190;4.440;2023-09-19T01:30:12;100790.69;;;17.50;100.00
69318;BME280;56457;52.190;4.440;2023-09-19T01:31:13;100780.28;;;17.44;100.00
69318;BME280;56457;52.190;4.440;2023-09-19T01:32:18;100799.41;;;17.54;100.00
69318;BME280;56457;52.190;4.440;2023-09-19T01:33:21;100786.22;;;17.51;100.00
69318;BME280;56457;52.190;4.440;2023-09-19T01:34:23;100788.09;;;17.49;100.00
69318;BME280;56457;52.190;4.440;2023-09-19T01:35:23;100800.56;;;17.47;100.00
69318;BME280;56457;52.190;4.440;2023-09-19T01:36:25;100789.88;;;17.48;100.00
69318;BME280;56457;52.190;4.440;2023-09-19T01:37:26;100798.59;;;17.52;100.00
69318;BME280;56457;52.190;4.440;2023-09-19T01:38:27;100788.09;;;17.49;100.00
69318;BME280;56457;52.190;4.440;2023-09-19T01:39:27;100803.06;;;17.50;100.00
69318;BME280;56457;52.190;4.440;2023-09-19T01:40:28;100788.22;;;17.46;100.00
69318;BME280;56457;52.190;4.440;2023-09-19T01:41:32;100796.97;;;17.48;100.00
69318;BME280;56457;52.190;4.440;2023-09-19T01:43:55;100794.41;;;17.45;100.00
69318;BME280;56457;52.190;4.440;2023-09-19T01:45:04;100780.94;;;17.51;100.00
69318;BME280;56457;52.190;4.440;2023-09-19T01:46:09;100780.06;;;17.50;100.00
69318;BME280;56457;52.190;4.440;2023-09-19T01:47:20;100785.44;;;17.49;100.00
69318;BME280;56457;52.190;4.440;2023-09-19T01:49:41;100792.91;;;17.38;100.00
69318;BME280;56457;52.190;4.440;2023-09-19T01:50:55;100795.75;;;17.33;100.00
69318;BME280;56457;52.190;4.440;2023-09-19T01:54:30;100793.03;;;17.35;100.00
69318;BME280;56457;52.190;4.440;2023-09-19T01:55:35;100796.28;;;17.43;100.00
69318;BME280;56457;52.190;4.440;2023-09-19T01:56:42;100803.31;;;17.44;100.00
69318;BME280;56457;52.190;4.440;2023-09-19T01:57:49;100806.81;;;17.44;100.00
69318;BME280;56457;52.190;4.440;2023-09-19T01:58:53;100805.91;;;17.45;100.00
69318;BME280;56457;52.190;4.440;2023-09-19T02:00:03;100809.19;;;17.29;100.00
69318;BME280;56457;52.190;4.440;2023-09-19T02:01:06;100802.41;;;17.20;100.00
69318;BME280;56457;52.190;4.440;2023-09-19T02:02:08;100796.56;;;17.10;100.00
69318;BME280;56457;52.190;4.440;2023-09-19T02:03:09;100806.63;;;17.01;100.00
69318;BME280;56457;52.190;4.440;2023-09-19T02:04:10;100803.03;;;17.03;100.00
69318;BME280;56457;52.190;4.440;2023-09-19T02:05:10;100806.69;;;16.99;100.00
69318;BME280;56457;52.190;4.440;2023-09-19T02:06:15;100798.16;;;16.91;100.00
69318;BME280;56457;52.190;4.440;2023-09-19T02:07:17;100805.00;;;16.97;100.00
69318;BME280;56457;52.190;4.440;2023-09-19T02:08:18;100791.59;;;17.01;100.00
69318;BME280;56457;52.190;4.440;2023-09-19T02:09:19;100806.41;;;17.07;100.00
69318;BME280;56457;52.190;4.440;2023-09-19T02:10:19;100800.09;;;17.11;100.00
69318;BME280;56457;52.190;4.440;2023-09-19T02:11:20;100798.09;;;17.17;100.00
69318;BME280;56457;52.190;4.440;2023-09-19T02:12:20;100809.63;;;17.16;100.00
69318;BME280;56457;52.190;4.440;2023-09-19T02:13:21;100806.03;;;17.17;100.00
69318;BME280;56457;52.190;4.440;2023-09-19T02:14:24;100801.66;;;17.16;100.00
69318;BME280;56457;52.190;4.440;2023-09-19T02:15:24;100812.19;;;17.18;100.00
69318;BME280;56457;52.190;4.440;2023-09-19T02:16:24;100798.00;;;17.20;100.00
69318;BME280;56457;52.190;4.440;2023-09-19T02:17:25;100794.44;;;17.20;100.00
69318;BME280;56457;52.190;4.440;2023-09-19T02:18:26;100801.72;;;17.15;100.00
69318;BME280;56457;52.190;4.440;2023-09-19T02:19:28;100816.06;;;17.09;100.00
69318;BME280;56457;52.190;4.440;2023-09-19T02:20:29;100811.56;;;17.11;100.00
69318;BME280;56457;52.190;4.440;2023-09-19T02:21:30;100807.88;;;17.15;100.00
69318;BME280;56457;52.190;4.440;2023-09-19T02:22:30;100795.38;;;17.19;100.00
69318;BME280;56457;52.190;4.440;2023-09-19T02:23:31;100793.56;;;17.21;100.00
69318;BME280;56457;52.190;4.440;2023-09-19T02:24:31;100807.53;;;17.25;100.00
69318;BME280;56457;52.190;4.440;2023-09-19T02:25:32;100799.75;;;17.20;100.00
69318;BME280;56457;52.190;4.440;2023-09-19T02:26:32;100812.03;;;17.22;100.00
69318;BME280;56457;52.190;4.440;2023-09-19T02:27:36;100814.78;;;17.19;100.00
69318;BME280;56457;52.190;4.440;2023-09-19T02:28:37;100795.38;;;17.19;100.00
69318;BME280;56457;52.190;4.440;2023-09-19T02:29:37;100812.03;;;17.22;100.00
69318;BME280;56457;52.190;4.440;2023-09-19T02:30:38;100812.25;;;17.16;100.00
69318;BME280;56457;52.190;4.440;2023-09-19T02:31:38;100813.22;;;17.14;100.00
69318;BME280;56457;52.190;4.440;2023-09-19T02:32:38;100813.91;;;17.20;100.00
69318;BME280;56457;52.190;4.440;2023-09-19T02:33:39;100801.53;;;17.19;100.00
69318;BME280;56457;52.190;4.440;2023-09-19T02:34:39;100800.66;;;17.20;100.00
69318;BME280;56457;52.190;4.440;2023-09-19T02:35:40;100805.94;;;17.20;100.00
69318;BME280;56457;52.190;4.440;2023-09-19T02:36:40;100798.88;;;17.19;100.00
69318;BME280;56457;52.190;4.440;2023-09-19T02:37:40;100802.16;;;17.28;100.00
69318;BME280;56457;52.190;4.440;2023-09-19T02:38:41;100804.97;;;17.23;100.00
69318;BME280;56457;52.190;4.440;2023-09-19T02:39:41;100808.38;;;17.27;100.00
69318;BME280;56457;52.190;4.440;2023-09-19T02:40:41;100804.03;;;17.24;100.00
69318;BME280;56457;52.190;4.440;2023-09-19T02:41:43;100802.94;;;17.30;100.00
69318;BME280;56457;52.190;4.440;2023-09-19T02:42:46;100801.06;;;17.33;100.00
69318;BME280;56457;52.190;4.440;2023-09-19T02:43:48;100809.25;;;17.27;100.00
69318;BME280;56457;52.190;4.440;2023-09-19T02:44:49;100801.22;;;17.29;100.00
69318;BME280;56457;52.190;4.440;2023-09-19T02:45:49;100805.38;;;17.36;100.00
69318;BME280;56457;52.190;4.440;2023-09-19T02:46:50;100803.59;;;17.36;100.00
69318;BME280;56457;52.190;4.440;2023-09-19T02:47:50;100800.06;;;17.36;100.00
69318;BME280;56457;52.190;4.440;2023-09-19T02:48:51;100803.53;;;17.38;100.00
69318;BME280;56457;52.190;4.440;2023-09-19T02:49:51;100807.09;;;17.37;100.00
69318;BME280;56457;52.190;4.440;2023-09-19T02:50:54;100801.00;;;17.35;100.00
69318;BME280;56457;52.190;4.440;2023-09-19T02:51:54;100797.56;;;17.31;100.00
69318;BME280;56457;52.190;4.440;2023-09-19T02:52:54;100800.00;;;17.37;100.00
69318;BME280;56457;52.190;4.440;2023-09-19T02:53:55;100798.44;;;17.32;100.00
69318;BME280;56457;52.190;4.440;2023-09-19T02:54:56;100786.59;;;17.42;100.00
69318;BME280;56457;52.190;4.440;2023-09-19T02:55:56;100799.78;;;17.43;100.00
69318;BME280;56457;52.190;4.440;2023-09-19T02:56:56;100802.56;;;17.40;100.00
69318;BME280;56457;52.190;4.440;2023-09-19T02:57:59;100801.72;;;17.38;100.00
69318;BME280;56457;52.190;4.440;2023-09-19T02:59:00;100803.44;;;17.41;100.00
69318;BME280;56457;52.190;4.440;2023-09-19T03:00:01;100805.16;;;17.42;100.00
69318;BME280;56457;52.190;4.440;2023-09-19T03:01:09;100803.19;;;17.47;100.00
69318;BME280;56457;52.190;4.440;2023-09-19T03:02:11;100813.97;;;17.42;100.00
69318;BME280;56457;52.190;4.440;2023-09-19T03:03:11;100805.94;;;17.44;100.00
69318;BME280;56457;52.190;4.440;2023-09-19T03:04:12;100814.84;;;17.43;100.00
69318;BME280;56457;52.190;4.440;2023-09-19T03:05:12;100813.88;;;17.45;100.00
69318;BME280;56457;52.190;4.440;2023-09-19T03:06:13;100805.84;;;17.47;100.00
69318;BME280;56457;52.190;4.440;2023-09-19T03:07:13;100802.38;;;17.45;100.00
69318;BME280;56457;52.190;4.440;2023-09-19T03:08:14;100801.19;;;17.54;100.00
69318;BME280;56457;52.190;4.440;2023-09-19T03:09:17;100799.47;;;17.53;100.00
69318;BME280;56457;52.190;4.440;2023-09-19T03:10:18;100795.94;;;17.52;100.00
69318;BME280;56457;52.190;4.440;2023-09-19T03:11:18;100803.94;;;17.50;100.00
69318;BME280;56457;52.190;4.440;2023-09-19T03:12:23;100788.09;;;17.49;100.00
69318;BME280;56457;52.190;4.440;2023-09-19T03:13:23;100798.38;;;17.58;100.00
69318;BME280;56457;52.190;4.440;2023-09-19T03:14:23;100798.47;;;17.55;100.00
69318;BME280;56457;52.190;4.440;2023-09-19T03:15:24;100802.84;;;17.56;100.00
69318;BME280;56457;52.190;4.440;2023-09-19T03:16:24;100795.75;;;17.57;100.00
69318;BME280;56457;52.190;4.440;2023-09-19T03:17:25;100793.06;;;17.58;100.00
69318;BME280;56457;52.190;4.440;2023-09-19T03:18:25;100789.59;;;17.56;100.00
69318;BME280;56457;52.190;4.440;2023-09-19T03:19:28;100802.13;;;17.53;100.00
69318;BME280;56457;52.190;4.440;2023-09-19T03:20:29;100796.03;;;17.49;100.00
69318;BME280;56457;52.190;4.440;2023-09-19T03:21:29;100803.19;;;17.47;100.00
69318;BME280;56457;52.190;4.440;2023-09-19T03:22:30;100793.53;;;17.46;100.00
69318;BME280;56457;52.190;4.440;2023-09-19T03:23:31;100793.56;;;17.44;100.00
69318;BME280;56457;52.190;4.440;2023-09-19T03:24:31;100787.50;;;17.41;100.00
69318;BME280;56457;52.190;4.440;2023-09-19T03:25:34;100790.03;;;17.44;100.00
69318;BME280;56457;52.190;4.440;2023-09-19T03:26:35;100785.56;;;17.46;100.00
69318;BME280;56457;52.190;4.440;2023-09-19T03:27:36;100784.81;;;17.42;100.00
69318;BME280;56457;52.190;4.440;2023-09-19T03:28:36;100798.19;;;17.39;100.00
69318;BME280;56457;52.190;4.440;2023-09-19T03:29:36;100798.06;;;17.42;100.00
69318;BME280;56457;52.190;4.440;2023-09-19T03:30:37;100799.84;;;17.42;100.00
69318;BME280;56457;52.190;4.440;2023-09-19T03:31:38;100792.28;;;17.31;100.00
69318;BME280;56457;52.190;4.440;2023-09-19T03:32:45;100800.13;;;17.34;100.00
69318;BME280;56457;52.190;4.440;2023-09-19T03:33:46;100796.84;;;17.28;100.00
69318;BME280;56457;52.190;4.440;2023-09-19T03:34:47;100806.63;;;17.26;100.00
69318;BME280;56457;52.190;4.440;2023-09-19T03:35:51;100812.75;;;17.28;100.00
69318;BME280;56457;52.190;4.440;2023-09-19T03:36:52;100811.06;;;17.25;100.00
69318;BME280;56457;52.190;4.440;2023-09-19T03:37:52;100808.69;;;17.17;100.00
69318;BME280;56457;52.190;4.440;2023-09-19T03:38:53;100820.09;;;17.19;100.00
69318;BME280;56457;52.190;4.440;2023-09-19T03:39:53;100811.25;;;17.20;100.00
69318;BME280;56457;52.190;4.440;2023-09-19T03:40:53;100820.06;;;17.21;100.00
69318;BME280;56457;52.190;4.440;2023-09-19T03:41:53;100815.44;;;17.26;100.00
69318;BME280;56457;52.190;4.440;2023-09-19T03:42:54;100808.47;;;17.23;100.00
69318;BME280;56457;52.190;4.440;2023-09-19T03:43:55;100815.19;;;17.34;100.00
69318;BME280;56457;52.190;4.440;2023-09-19T03:44:56;100809.06;;;17.32;100.00
69318;BME280;56457;52.190;4.440;2023-09-19T03:45:57;100816.06;;;17.33;100.00
69318;BME280;56457;52.190;4.440;2023-09-19T03:47:01;100818.09;;;17.26;100.00
69318;BME280;56457;52.190;4.440;2023-09-19T03:48:01;100808.31;;;17.28;100.00
69318;BME280;56457;52.190;4.440;2023-09-19T03:49:01;100816.19;;;17.30;100.00
69318;BME280;56457;52.190;4.440;2023-09-19T03:50:02;100812.75;;;17.28;100.00
69318;BME280;56457;52.190;4.440;2023-09-19T03:51:04;100808.13;;;17.33;100.00
69318;BME280;56457;52.190;4.440;2023-09-19T03:52:04;100822.22;;;17.35;100.00
69318;BME280;56457;52.190;4.440;2023-09-19T03:53:05;100811.81;;;17.29;100.00
69318;BME280;56457;52.190;4.440;2023-09-19T03:54:07;100817.84;;;17.34;100.00
69318;BME280;56457;52.190;4.440;2023-09-19T03:55:07;100820.53;;;17.32;100.00
69318;BME280;56457;52.190;4.440;2023-09-19T03:56:09;100806.47;;;17.30;100.00
69318;BME280;56457;52.190;4.440;2023-09-19T03:57:10;100811.38;;;17.41;100.00
69318;BME280;56457;52.190;4.440;2023-09-19T03:58:12;100809.66;;;17.40;100.00
69318;BME280;56457;52.190;4.440;2023-09-19T03:59:13;100802.88;;;17.31;100.00
69318;BME280;56457;52.190;4.440;2023-09-19T04:00:14;100825.88;;;17.31;100.00
69318;BME280;56457;52.190;4.440;2023-09-19T04:01:14;100818.91;;;17.28;100.00
69318;BME280;56457;52.190;4.440;2023-09-19T04:02:16;100816.31;;;17.27;100.00
69318;BME280;56457;52.190;4.440;2023-09-19T04:03:22;100833.19;;;17.24;100.00
69318;BME280;56457;52.190;4.440;2023-09-19T04:04:22;100834.69;;;17.31;100.00
69318;BME280;56457;52.190;4.440;2023-09-19T04:05:25;100827.72;;;17.29;100.00
69318;BME280;56457;52.190;4.440;2023-09-19T04:06:25;100825.09;;;17.29;100.00
69318;BME280;56457;52.190;4.440;2023-09-19T04:07:27;100839.91;;;17.34;100.00
69318;BME280;56457;52.190;4.440;2023-09-19T04:08:29;100825.03;;;17.30;100.00
69318;BME280;56457;52.190;4.440;2023-09-19T04:09:29;100829.53;;;17.28;100.00
69318;BME280;56457;52.190;4.440;2023-09-19T04:10:30;100830.31;;;17.30;100.00
69318;BME280;56457;52.190;4.440;2023-09-19T04:11:30;100839.13;;;17.31;100.00
69318;BME280;56457;52.190;4.440;2023-09-19T04:12:31;100838.28;;;17.30;100.00
69318;BME280;56457;52.190;4.440;2023-09-19T04:13:32;100827.88;;;17.24;100.00
69318;BME280;56457;52.190;4.440;2023-09-19T04:14:32;100822.66;;;17.22;100.00
69318;BME280;56457;52.190;4.440;2023-09-19T04:15:33;100843.72;;;17.27;100.00
69318;BME280;56457;52.190;4.440;2023-09-19T04:16:33;100834.69;;;17.31;100.00
69318;BME280;56457;52.190;4.440;2023-09-19T04:17:33;100832.97;;;17.30;100.00
69318;BME280;56457;52.190;4.440;2023-09-19T04:18:33;100831.13;;;17.32;100.00
69318;BME280;56457;52.190;4.440;2023-09-19T04:19:37;100836.50;;;17.31;100.00
69318;BME280;56457;52.190;4.440;2023-09-19T04:20:37;100835.63;;;17.30;100.00
69318;BME280;56457;52.190;4.440;2023-09-19T04:21:38;100833.97;;;17.28;100.00
69318;BME280;56457;52.190;4.440;2023-09-19T04:22:38;100839.13;;;17.31;100.00
69318;BME280;56457;52.190;4.440;2023-09-19T04:23:39;100826.69;;;17.33;100.00
69318;BME280;56457;52.190;4.440;2023-09-19T04:24:39;100845.25;;;17.33;100.00
69318;BME280;56457;52.190;4.440;2023-09-19T04:25:40;100836.50;;;17.31;100.00
69318;BME280;56457;52.190;4.440;2023-09-19T04:26:41;100842.66;;;17.31;100.00
69318;BME280;56457;52.190;4.440;2023-09-19T04:27:42;100842.94;;;17.23;100.00
69318;BME280;56457;52.190;4.440;2023-09-19T04:28:44;100844.59;;;17.26;100.00
69318;BME280;56457;52.190;4.440;2023-09-19T04:29:44;100850.78;;;17.27;100.00
69318;BME280;56457;52.190;4.440;2023-09-19T04:30:44;100850.69;;;17.30;100.00
69318;BME280;56457;52.190;4.440;2023-09-19T04:31:45;100852.31;;;17.34;100.00
69318;BME280;56457;52.190;4.440;2023-09-19T04:32:46;100844.50;;;17.29;100.00
69318;BME280;56457;52.190;4.440;2023-09-19T04:33:50;100843.66;;;17.29;100.00
69318;BME280;56457;52.190;4.440;2023-09-19T04:34:51;100848.78;;;17.33;100.00
69318;BME280;56457;52.190;4.440;2023-09-19T04:35:51;100845.91;;;17.39;100.00
69318;BME280;56457;52.190;4.440;2023-09-19T04:36:51;100845.84;;;17.41;100.00
69318;BME280;56457;52.190;4.440;2023-09-19T04:37:52;100856.47;;;17.41;100.00
69318;BME280;56457;52.190;4.440;2023-09-19T04:38:54;100846.81;;;17.38;100.00
69318;BME280;56457;52.190;4.440;2023-09-19T04:39:55;100846.28;;;17.29;100.00
69318;BME280;56457;52.190;4.440;2023-09-19T04:40:58;100842.56;;;17.34;100.00
69318;BME280;56457;52.190;4.440;2023-09-19T04:41:59;100846.88;;;17.37;100.00
69318;BME280;56457;52.190;4.440;2023-09-19T04:42:59;100849.09;;;17.24;100.00
69318;BME280;56457;52.190;4.440;2023-09-19T04:44:00;100848.34;;;17.20;100.00
69318;BME280;56457;52.190;4.440;2023-09-19T04:45:00;100850.31;;;17.15;100.00
69318;BME280;56457;52.190;4.440;2023-09-19T04:46:00;100857.97;;;17.23;100.00
69318;BME280;56457;52.190;4.440;2023-09-19T04:47:01;100851.66;;;17.27;100.00
69318;BME280;56457;52.190;4.440;2023-09-19T04:48:01;100841.16;;;17.24;100.00
69318;BME280;56457;52.190;4.440;2023-09-19T04:49:02;100845.38;;;17.30;100.00
69318;BME280;56457;52.190;4.440;2023-09-19T04:50:03;100838.66;;;17.19;100.00
69318;BME280;56457;52.190;4.440;2023-09-19T04:51:04;100837.84;;;17.17;100.00
69318;BME280;56457;52.190;4.440;2023-09-19T04:52:05;100838.91;;;17.12;100.00
69318;BME280;56457;52.190;4.440;2023-09-19T04:53:05;100851.44;;;17.08;100.00
69318;BME280;56457;52.190;4.440;2023-09-19T04:54:07;100852.94;;;17.15;100.00
69318;BME280;56457;52.190;4.440;2023-09-19T04:55:08;100843.09;;;17.19;100.00
69318;BME280;56457;52.190;4.440;2023-09-19T04:56:09;100848.34;;;17.20;100.00
69318;BME280;56457;52.190;4.440;2023-09-19T04:57:09;100862.13;;;17.30;100.00
69318;BME280;56457;52.190;4.440;2023-09-19T04:58:10;100867.34;;;17.33;100.00
69318;BME280;56457;52.190;4.440;2023-09-19T04:59:10;100857.06;;;17.24;100.00
69318;BME280;56457;52.190;4.440;2023-09-19T05:00:12;100846.34;;;17.27;100.00
69318;BME280;56457;52.190;4.440;2023-09-19T05:01:13;100855.97;;;17.30;100.00
69318;BME280;56457;52.190;4.440;2023-09-19T05:02:15;100838.41;;;17.27;100.00
69318;BME280;56457;52.190;4.440;2023-09-19T05:03:17;100848.16;;;17.27;100.00
69318;BME280;56457;52.190;4.440;2023-09-19T05:04:17;100856.97;;;17.27;100.00
69318;BME280;56457;52.190;4.440;2023-09-19T05:05:18;100840.28;;;17.23;100.00
69318;BME280;56457;52.190;4.440;2023-09-19T05:06:19;100844.78;;;17.21;100.00
69318;BME280;56457;52.190;4.440;2023-09-19T05:07:22;100848.44;;;17.17;100.00
69318;BME280;56457;52.190;4.440;2023-09-19T05:08:24;100843.31;;;17.13;100.00
69318;BME280;56457;52.190;4.440;2023-09-19T05:09:24;100853.69;;;17.19;100.00
69318;BME280;56457;52.190;4.440;2023-09-19T05:10:24;100843.00;;;17.22;100.00
69318;BME280;56457;52.190;4.440;2023-09-19T05:11:25;100847.53;;;17.18;100.00
69318;BME280;56457;52.190;4.440;2023-09-19T05:12:28;100849.22;;;17.21;100.00
69318;BME280;56457;52.190;4.440;2023-09-19T05:13:28;100843.78;;;17.24;100.00
69318;BME280;56457;52.190;4.440;2023-09-19T05:14:28;100845.59;;;17.23;100.00
69318;BME280;56457;52.190;4.440;2023-09-19T05:15:30;100841.22;;;17.22;100.00
69318;BME280;56457;52.190;4.440;2023-09-19T05:16:31;100839.69;;;17.15;100.00
69318;BME280;56457;52.190;4.440;2023-09-19T05:17:31;100835.47;;;17.10;100.00
69318;BME280;56457;52.190;4.440;2023-09-19T05:18:32;100839.72;;;17.14;100.00
69318;BME280;56457;52.190;4.440;2023-09-19T05:19:33;100838.91;;;17.12;100.00
69318;BME280;56457;52.190;4.440;2023-09-19T05:20:35;100843.22;;;17.16;100.00
69318;BME280;56457;52.190;4.440;2023-09-19T05:21:37;100839.94;;;17.08;100.00
69318;BME280;56457;52.190;4.440;2023-09-19T05:22:41;100837.25;;;17.09;100.00
69318;BME280;56457;52.190;4.440;2023-09-19T05:23:43;100848.81;;;17.07;100.00
69318;BME280;56457;52.190;4.440;2023-09-19T05:24:43;100840.91;;;17.05;100.00
69318;BME280;56457;52.190;4.440;2023-09-19T05:25:43;100845.41;;;17.03;100.00
69318;BME280;56457;52.190;4.440;2023-09-19T05:26:44;100840.00;;;17.06;100.00
69318;BME280;56457;52.190;4.440;2023-09-19T05:27:45;100855.69;;;17.12;100.00
69318;BME280;56457;52.190;4.440;2023-09-19T05:28:46;100847.69;;;17.14;100.00
69318;BME280;56457;52.190;4.440;2023-09-19T05:29:48;100853.75;;;17.17;100.00
69318;BME280;56457;52.190;4.440;2023-09-19T05:30:50;100849.25;;;17.19;100.00
69318;BME280;56457;52.190;4.440;2023-09-19T05:31:51;100849.38;;;17.16;100.00
69318;BME280;56457;52.190;4.440;2023-09-19T05:32:51;100845.81;;;17.17;100.00
69318;BME280;56457;52.190;4.440;2023-09-19T05:33:51;100836.22;;;17.13;100.00
69318;BME280;56457;52.190;4.440;2023-09-19T05:34:55;100854.88;;;17.10;100.00
69318;BME280;56457;52.190;4.440;2023-09-19T05:35:56;100850.31;;;17.15;100.00